Spacing
UTStats Logo

Page [1/29] Selection: [First] / [Previous] / [Next] / [Last]
* Click headings to change Sorting *
Unreal Tournament Player List
Name Search:
Player Name Matches Score Frags Kills Deaths Suicides Eff. Acc. TTL  Hours
es LUIS7 1 1 1 1 0 0 100.00 0.00 09:01 0.15
gb Dellaroo 3 97 50 50 7 0 88.99 28.32 06:55 0.61
ie canna3inol 3 18 12 15 7 3 61.11 16.90 06:46 0.73
br *HOMeM*CaVanHaS 1 36 36 36 1 0 97.30 41.94 06:35 0.22
de SchlitzZz 1 21 21 21 1 0 95.45 19.87 06:24 0.21
ru russian_noob 2 2 2 3 1 1 75.00 141.20 06:02 0.40
nl -=LaMaH=-2 2 6 6 6 12 0 17.65 230.00 05:26 0.51
ru EBATOR3000 2 13 6 6 19 0 60.41 23.21 04:41 0.41
de Rocka 1 17 17 17 0 0 100.00 63.58 04:33 0.08
ru Glitch 2 19 19 19 6 0 39.58 22.48 04:03 0.45
de King_of_Quarantaine 2 19 19 19 0 0 100.00 93.35 03:55 0.13
ru frvn 1 0 0 0 1 0 0.00 0.00 03:48 0.02
cl Frâncø» 2 25 25 25 12 0 71.43 58.39 03:33 0.21
pl DOPADACZ 3 89 86 86 7 0 82.61 36.34 03:15 0.40
gb Valy 5 45 72 72 48 0 59.04 38.35 03:15 0.88
ru ExMuser 5 0 0 0 11 0 0.00 0.00 03:00 0.67
de Loque 5 77 115 120 31 4 67.06 21.65 02:55 1.06
hr kita 3 130 130 130 16 0 88.70 38.80 02:50 0.82
si nor 13 236 236 243 152 7 63.78 25.89 02:48 3.46
pl sZulc888 5 94 94 96 35 2 70.96 20.82 02:40 1.09
ru TAHOC 1 14 14 14 4 0 77.78 76.14 02:39 0.22
de Lycop 1 1 1 1 0 0 100.00 91.86 02:38 0.04
de HateBreeD 1 30 30 30 3 0 90.91 68.69 02:38 0.18
ru Odin 6 128 86 88 65 0 47.16 -54.54 02:35 0.55
ch Sven 3 24 24 26 9 2 70.96 16.27 02:33 0.51
ru Luna 2 9 9 12 37 3 11.77 29.72 02:29 0.38
de Maybe 2 21 21 26 8 5 67.72 12.55 02:29 0.55
dk oS^eRaser 4 85 85 87 94 2 47.07 22.19 02:27 1.10
de pain 2 67 60 60 4 0 94.12 38.56 02:25 0.24
de 0d1N 1 0 2 2 1 0 66.67 166.67 02:22 0.03
br Ragnar 2 6 6 6 3 0 78.57 145.83 02:22 0.10
de YourLastEnemy 1 12 12 12 2 0 85.71 40.94 02:22 0.12
de [r]WattsoN 1 6 6 6 1 0 85.71 50.00 02:18 0.08
ru www 16 263 282 291 140 5 64.65 21.69 02:13 2.42
gb kes 6 132 157 164 81 4 67.94 114.81 02:12 0.93
it v 11 259 272 278 118 6 46.33 29.08 02:07 1.69
de Morgue! 9 333 373 377 71 4 72.03 51.39 02:05 1.22
fr (FSC)TypeKiller 4 -2 0 0 8 2 0.00 0.00 02:05 0.45
de S51 5 270 238 239 53 1 82.55 82.68 02:04 1.42
ru ghostofblu 5 239 149 149 15 0 90.59 98.33 02:03 0.54
bg TDN-Berserker 22 719 702 704 130 2 85.36 -16.63 02:02 2.26
enculator 1 0 0 2 3 2 28.57 27.20 02:01 0.20
us Kain 1 -2 0 0 2 2 0.00 0.00 02:00 0.17
es Lagadov 1 0 0 0 2 0 0.00 0.00 01:57 0.10
ie OhLordyWardy 3 -1 3 7 15 7 30.51 14.78 01:57 0.72
au Joel 1 20 20 20 5 0 80.00 47.04 01:57 0.20
ru 13 1 1 1 1 0 0 100.00 50.00 01:56 0.03
cl HandRollero 1 0 0 0 1 0 0.00 0.00 01:52 0.06
au Bruce_Spannerton 2 23 23 23 18 0 56.93 39.33 01:48 0.55
pt Andre-Silva 5 54 54 55 49 1 41.62 20.11 01:48 1.10
Page [1/29] Selection: [First] / [Previous] / [Next] / [Last]



UTStats Beta 4.2.8.1 © 2005 azazel, AnthraX and toa